KPHN/PHN METAR and TAF weather

Enter ICAO airport designator
Station Type Date Time Source
KPHN METAR 2019/08/24 17:35 UTC NOAA

KPHN 241735Z AUTO 00000KT 10SM SCT043 21/08 A3031 RMK AO2


Station Type Date Time Source
KPHN Decoded METAR 2019/08/24 17:35 UTC NOAA

Station name not available
Aug 24, 2019 - 01:35 PM EDT / 2019.08.24 1735 UTC
Wind: Calm:0
Visibility: 10 mile(s):0
Sky conditions: partly cloudy
Temperature: 69 F (21 C)
Dew Point: 46 F (8 C)
Relative Humidity: 43%
Pressure (altimeter): 30.31 in. Hg (1026 hPa)
ob: KPHN 241735Z AUTO 00000KT 10SM SCT043 21/08 A3031 RMK AO2
cycle: 17

Station Type Date Time Source
KPHN TAF UTC NOAA

Error!

Example: see airport list